This is the latest recevied weather packets stored in our database for station/object DK6GC-10. If no packets are shown the sender has not sent any weather packets the latest 10 day(s).
| Time | Temp. | Humidity | Pressure | Rain* | Wind** | Luminosity | Snow |
|---|---|---|---|---|---|---|---|
| 1787944516 | 20° C | 79% | 1016.2 hPa | - | - | - | - |
| 1787943616 | 20° C | 82% | 1016.2 hPa | - | - | - | - |
| 1787942716 | 20° C | 80% | 1016 hPa | - | - | - | - |
| 1787941816 | 20° C | 75% | 1015.6 hPa | - | - | - | - |
| 1787940914 | 20° C | 76% | 1015.3 hPa | - | - | - | - |
| 1787940019 | 20.56° C | 75% | 1015.2 hPa | - | - | - | - |
| 1787939119 | 21.11° C | 70% | 1015.1 hPa | - | - | - | - |
| 1787938218 | 22.22° C | 65% | 1014.8 hPa | - | - | - | - |
| 1787937318 | 22.78° C | 59% | 1014.5 hPa | - | - | - | - |
| 1787936418 | 23.33° C | 59% | 1014.5 hPa | - | - | - | - |
| 1787935518 | 23.89° C | 52% | 1014.1 hPa | - | - | - | - |
| 1787934618 | 24.44° C | 48% | 1013.9 hPa | - | - | - | - |
| 1787933718 | 25° C | 52% | 1013.8 hPa | - | - | - | - |
| 1787932817 | 25° C | 46% | 1013.6 hPa | - | - | - | - |
| 1787931917 | 25° C | 47% | 1013.6 hPa | - | - | - | - |
| 1787931017 | 25.56° C | 46% | 1013.5 hPa | - | - | - | - |
| 1787930117 | 26.11° C | 52% | 1013.5 hPa | - | - | - | - |
| 1787929217 | 25.56° C | 56% | 1013.6 hPa | - | - | - | - |
| 1787928317 | 25.56° C | 59% | 1013.6 hPa | - | - | - | - |
| 1787927416 | 24.44° C | 65% | 1013.7 hPa | - | - | - | - |
| 1787926516 | 25.56° C | 62% | 1013.7 hPa | - | - | - | - |
| 1787925616 | 25.56° C | 61% | 1013.8 hPa | - | - | - | - |
| 1787924716 | 25.56° C | 61% | 1013.7 hPa | - | - | - | - |
| 1787923816 | 26.67° C | 60% | 1013.9 hPa | - | - | - | - |
| 1787922916 | 26.67° C | 65% | 1014 hPa | - | - | - | - |
* Rain since midnight (hover to see other rain measurements)
** Current wind speed in m/s (hover to see current wind gust speed)